ADDS METAR Data INFO
IDs: Format: Raw Decoded Include TAF

Data at: 0746 UTC 23 Jul 2018

K49A 230735Z AUTO 00000KT 5SM BR OVC001 19/19 A2984 RMK AO2 T01940186
K49A 230715Z AUTO 00000KT 1SM BR OVC001 20/19 A2984 RMK AO2 T01950187
K49A 230655Z AUTO 05004KT 1/2SM FG OVC001 20/19 A2984 RMK AO2 T01980190
K49A 230635Z AUTO 00000KT 1/4SM FG OVC001 20/19 A2984 RMK AO2 T01970190
K49A 230615Z AUTO 00000KT 1/4SM FG OVC001 20/19 A2984 RMK AO2 T01950187
K49A 230555Z AUTO 00000KT 1/4SM FG OVC001 20/19 A2984 RMK AO2 T01950186 10215 20195
K49A 230535Z AUTO 00000KT M1/4SM FG OVC001 20/19 A2985 RMK AO2 T01960188
K49A 230515Z AUTO 00000KT M1/4SM FG OVC001 20/19 A2986 RMK AO2 T01950186
K49A 230455Z AUTO 00000KT M1/4SM FG OVC001 20/19 A2986 RMK AO2 T01960188
K49A 230435Z AUTO 00000KT 1/4SM FG OVC001 20/19 A2986 RMK AO2 T01990190
K49A 230415Z AUTO 00000KT 3/4SM BR OVC001 20/19 A2987 RMK AO2 T02000190
K49A 230355Z AUTO 00000KT 3SM BR BKN001 20/19 A2987 RMK AO2 T02010192
K49A 230335Z AUTO 00000KT 3SM BR SCT027 SCT033 20/19 A2987 RMK AO2 T02020193
K49A 230315Z AUTO 00000KT 5SM BR SCT001 SCT027 SCT032 20/19 A2988 RMK AO2 T02020193
K49A 230255Z AUTO 00000KT 4SM BR SCT001 SCT046 20/19 A2988 RMK AO2 T02010192
K49A 230235Z AUTO 00000KT 4SM BR BKN044 BKN070 20/19 A2987 RMK AO2 T02000191
K49A 230215Z AUTO 00000KT 5SM BR CLR 20/19 A2987 RMK AO2 T02000190
K49A 230155Z AUTO 00000KT 5SM BR CLR 20/19 A2986 RMK AO2 T02010191
K49A 230135Z AUTO 00000KT 7SM SCT002 SCT036 SCT042 21/19 A2986 RMK AO2 T02050193
K49A 230115Z AUTO 00000KT 10SM SCT002 SCT036 SCT050 21/19 A2986 RMK AO2 T02050193
K49A 230055Z AUTO 00000KT 10SM SCT041 SCT075 BKN120 21/20 A2986 RMK AO2 T02080196
K49A 230035Z AUTO 00000KT 10SM -RA SCT041 SCT075 OVC120 21/20 A2986 RMK AO2 T02100198
K49A 230015Z AUTO 00000KT 5SM -RA SCT034 SCT065 BKN120 22/20 A2986 RMK AO2 T02150201
K49A 222355Z AUTO 00000KT 7SM -RA SCT027 SCT042 BKN090 21/20 A2984 RMK AO2 T02120200 10281 20205
K49A 222335Z AUTO 00000KT 10SM -RA SCT034 SCT044 BKN055 21/20 A2984 RMK AO2 T02130200
K49A 222315Z AUTO 00000KT 10SM RA SCT034 BKN046 BKN080 22/19 A2985 RMK AO2 T02150194
K49A 222255Z AUTO 00000KT 10SM -RA SCT025 BKN080 OVC120 21/20 A2984 RMK AO2 T02140196
K49A 222235Z AUTO 28006KT 10SM SCT010 BKN070 OVC090 22/20 A2985 RMK AO2 T02230201
K49A 222215Z AUTO 00000KT 10SM SCT065 OVC090 23/19 A2984 RMK AO2 T02250194
K49A 222155Z AUTO 14004KT 10SM BKN065 BKN075 BKN100 23/20 A2984 RMK AO2 T02300198
K49A 222135Z AUTO 00000KT 10SM SCT050 BKN100 23/20 A2984 RMK AO2 T02270197
K49A 222115Z AUTO 13003KT 10SM SCT027 SCT035 BKN100 21/19 A2983 RMK AO2 T02100192
K49A 222055Z AUTO 36006KT 2 1/2SM RA SCT029 BKN037 OVC090 21/19 A2984 RMK AO2 T02050185
K49A 222035Z AUTO 32005KT 10SM -RA SCT043 BKN090 25/19 A2982 RMK AO2 T02490194
K49A 222015Z AUTO 27003KT 10SM CLR 26/18 A2981 RMK AO2 T02600181
K49A 221955Z AUTO 26004KT 10SM SCT041 SCT065 BKN100 27/18 A2981 RMK AO2 T02680176
K49A 221935Z AUTO 24006KT 10SM SCT047 SCT065 BKN100 28/17 A2982 RMK AO2 T02780172
K49A 221915Z AUTO 27007KT 10SM SCT034 SCT041 BKN050 27/18 A2982 RMK AO2 T02740182
K49A 221855Z AUTO 27005KT 10SM SCT037 27/18 A2983 RMK AO2 T02650179
K49A 221835Z AUTO 27005KT 10SM SCT050 SCT080 SCT100 27/18 A2984 RMK AO2 T02710182
K49A 221815Z AUTO 00000KT 10SM SCT040 SCT050 BKN100 26/18 A2985 RMK AO2 T02620176
K49A 221755Z AUTO 27004KT 10SM SCT033 SCT038 SCT048 27/18 A2986 RMK AO2 6//// T02670175
K49A 221735Z AUTO 28005KT 10SM SCT033 SCT038 27/18 A2987 RMK AO2 T02650181
K49A 221715Z AUTO 29005KT 10SM SCT030 SCT042 SCT050 26/18 A2987 RMK AO2 T02620180
K49A 221655Z AUTO 28007KT 250V320 10SM SCT030 BKN040 BKN050 26/18 A2988 RMK AO2 T02610181
K49A 221635Z AUTO 28007KT 27/17 A2988 RMK AO2 T02660172 PWINO